Terminal Aerodrome Forecast
Issued by NWS

Home | Current Version | Previous Version | Text Only | Print | Product List | Glossary On
Versions: 1 2 3 4 5 6 7 8 9 10 11 12 13 14
594
FTUS45 KABQ 191134
TAFTCC
TAF
KTCC 191134Z 1912/2012 23006KT P6SM SKC
     FM191600 22014KT P6SM FEW250
     FM192000 21019G29KT P6SM FEW250
     FM200200 24014KT P6SM SKC=

USA.gov is the U.S. government's official web portal to all federal, state and local government web resources and services.